Time;durP1;ratioP1;P1;durP2;ratioP2;P2;SDS_P1;SDS_P2;PMS_P1;PMS_P2;Temp;Humidity;BMP_temperature;BMP_pressure;BME280_temperature;BME280_humidity;BME280_pressure;Samples;Min_cycle;Max_cycle;Signal;HPM_P1;HPM_P2
2024/01/01 00:01:25;;;;;;;;;;;11.20;56.40;;;9.61;59.01;100100.81;12256666;19;19945;-84
2024/01/01 00:05:26;;;;;;;;;;;11.10;56.40;;;9.74;59.09;100116.53;12255975;19;19919;-84
2024/01/01 00:09:28;;;;;;;;;;;11.00;56.40;;;9.61;58.90;100100.81;12259232;19;19914;-84
2024/01/01 00:13:29;;;;;;;;;;;11.00;56.40;;;9.55;58.94;100088.16;12252686;19;19950;-85
2024/01/01 00:17:31;;;;;;;;;;;11.00;56.50;;;9.71;59.06;100122.78;12254318;19;19923;-85
2024/01/01 00:21:32;;;;;;;;;;;11.00;56.50;;;9.73;58.91;100125.31;12253641;19;19955;-84
2024/01/01 00:25:36;;;;;;;;;;;11.10;56.50;;;9.62;58.91;100102.50;12246450;19;20289;-85
2024/01/01 00:29:37;;;;;;;;;;;11.00;56.50;;;9.57;58.89;100091.50;12252602;19;19927;-85
2024/01/01 00:33:39;;;;;;;;;;;11.00;56.50;;;9.57;58.92;100108.94;12253000;19;19915;-84
2024/01/01 00:37:40;;;;;;;;;;;10.90;56.40;;;9.55;59.05;100116.81;12250642;19;20604;-85
2024/01/01 00:41:44;;;;;;;;;;;10.90;56.80;;;9.59;59.10;100113.13;12248342;19;19911;-84
2024/01/01 00:45:46;;;;;;;;;;;10.90;56.40;;;9.29;58.88;100069.75;12250281;19;19971;-84
2024/01/01 00:49:48;;;;;;;;;;;10.90;56.40;;;9.56;58.91;100121.13;12251692;19;19934;-84
2024/01/01 00:53:51;;;;;;;;;;;10.90;56.40;;;9.28;59.01;100080.25;12251544;19;19930;-85
2024/01/01 00:57:53;;;;;;;;;;;10.80;56.40;;;9.49;58.93;100117.22;12248340;19;19947;-84
2024/01/01 01:01:54;;;;;;;;;;;10.80;56.40;;;9.47;58.98;100119.06;12250441;19;19922;-85
2024/01/01 01:05:56;;;;;;;;;;;10.80;56.30;;;9.27;58.84;100092.44;12251624;19;19918;-85
2024/01/01 01:09:58;;;;;;;;;;;10.80;56.30;;;9.36;58.81;100117.09;12252910;19;19934;-85
2024/01/01 01:13:59;;;;;;;;;;;10.70;56.30;;;9.30;58.75;100128.72;12249728;19;20340;-84
2024/01/01 01:18:01;;;;;;;;;;;10.60;56.20;;;9.24;58.69;100131.72;12250664;19;19944;-84
2024/01/01 01:22:02;;;;;;;;;;;10.60;56.20;;;9.20;58.85;100125.00;12250522;19;19922;-85
2024/01/01 01:26:04;;;;;;;;;;;10.50;56.10;;;9.01;58.76;100090.53;12249841;19;19927;-85
2024/01/01 01:30:06;;;;;;;;;;;10.40;56.20;;;9.06;58.73;100101.53;12251250;19;19929;-85
2024/01/01 01:34:08;;;;;;;;;;;10.40;56.20;;;9.03;58.78;100110.38;12249522;19;19915;-85
2024/01/01 01:38:10;;;;;;;;;;;10.30;56.20;;;8.85;59.14;100081.03;12248019;19;19914;-84
2024/01/01 01:42:11;;;;;;;;;;;10.30;56.20;;;8.97;58.80;100099.47;12248724;19;19943;-85
2024/01/01 01:46:14;;;;;;;;;;;10.20;56.20;;;8.98;58.72;100101.97;12247564;19;19918;-84
2024/01/01 01:50:16;;;;;;;;;;;10.20;56.20;;;8.63;58.86;100052.81;12249153;19;20281;-85
2024/01/01 01:54:17;;;;;;;;;;;10.20;56.30;;;8.90;58.77;100098.16;12246543;19;19983;-85
2024/01/01 01:58:19;;;;;;;;;;;10.20;56.30;;;8.84;59.01;100092.38;12243802;19;20376;-85
2024/01/01 02:02:23;;;;;;;;;;;10.10;56.30;;;8.88;58.98;100097.41;12245969;19;19971;-85
2024/01/01 02:06:24;;;;;;;;;;;10.10;56.40;;;8.80;58.91;100085.69;12249126;19;20359;-85
2024/01/01 02:10:26;;;;;;;;;;;10.10;56.40;;;8.72;58.92;100067.06;12248099;19;19911;-86
2024/01/01 02:14:29;;;;;;;;;;;10.10;56.40;;;8.80;59.02;100082.22;12244088;19;19923;-85
2024/01/01 02:18:31;;;;;;;;;;;10.10;56.40;;;8.71;59.02;100072.34;12241204;19;19926;-85
2024/01/01 02:22:42;;;;;;;;;;;10.10;56.40;;;8.72;58.93;100071.41;12245158;19;19910;-85
2024/01/01 02:26:45;;;;;;;;;;;10.10;56.50;;;8.78;59.05;100076.28;12245559;19;20296;-85
2024/01/01 02:30:47;;;;;;;;;;;10.00;56.40;;;8.76;58.85;100075.53;12246254;19;19915;-85
2024/01/01 02:34:48;;;;;;;;;;;10.10;56.50;;;8.77;58.93;100083.22;12245442;19;19926;-85
2024/01/01 02:38:50;;;;;;;;;;;10.00;56.40;;;8.73;58.93;100086.97;12245637;19;19944;-85
2024/01/01 02:42:52;;;;;;;;;;;10.00;56.50;;;8.66;59.04;100071.78;12242746;19;20340;-85
2024/01/01 02:46:54;;;;;;;;;;;10.20;56.50;;;8.58;58.82;100054.81;12244343;19;20001;-85
2024/01/01 02:50:56;;;;;;;;;;;10.00;56.50;;;8.67;58.92;100066.50;12245300;19;20277;-85
2024/01/01 02:54:58;;;;;;;;;;;10.10;56.50;;;8.58;58.91;100060.03;12244452;19;19915;-85
2024/01/01 02:59:00;;;;;;;;;;;10.00;56.50;;;8.41;58.84;100044.56;12244204;19;20268;-85
2024/01/01 03:03:01;;;;;;;;;;;9.90;56.50;;;8.64;58.97;100082.25;12243793;19;19934;-85
2024/01/01 03:07:03;;;;;;;;;;;9.90;56.50;;;8.44;59.09;100060.00;12243075;19;19914;-85
2024/01/01 03:11:05;;;;;;;;;;;10.00;56.50;;;8.59;59.02;100086.91;12252021;19;19915;-85
2024/01/01 03:15:07;;;;;;;;;;;9.90;56.50;;;8.52;59.09;100069.97;12255618;19;19938;-84
2024/01/01 03:19:09;;;;;;;;;;;9.90;56.50;;;8.52;59.01;100082.97;12258163;19;19914;-85
2024/01/01 03:23:11;;;;;;;;;;;9.90;56.50;;;8.50;58.92;100074.41;12253366;19;19922;-85
2024/01/01 03:27:13;;;;;;;;;;;9.80;56.40;;;8.56;58.98;100092.28;12253287;19;19929;-85
2024/01/01 03:31:14;;;;;;;;;;;9.80;56.40;;;8.32;58.99;100058.91;12255443;19;19918;-85
2024/01/01 03:35:17;;;;;;;;;;;9.80;56.40;;;8.51;58.99;100091.72;12253876;19;20321;-85
2024/01/01 03:39:19;;;;;;;;;;;9.80;56.40;;;8.34;58.87;100077.00;12256981;19;19974;-85
2024/01/01 03:43:20;;;;;;;;;;;9.80;56.40;;;8.30;58.92;100068.56;12249272;19;20320;-85
2024/01/01 03:47:22;;;;;;;;;;;9.70;56.70;;;8.30;58.85;100070.31;12252126;19;19915;-85
2024/01/01 03:51:24;;;;;;;;;;;9.70;56.30;;;8.39;59.04;100078.47;12255433;19;19929;-85
2024/01/01 03:55:25;;;;;;;;;;;9.80;56.40;;;8.17;58.92;100047.59;12254351;19;19911;-85
2024/01/01 03:59:27;;;;;;;;;;;9.60;56.30;;;8.24;58.97;100063.72;12254576;19;20075;-85
2024/01/01 04:03:29;;;;;;;;;;;9.60;56.40;;;8.10;58.83;100035.00;12254460;19;20298;-85
2024/01/01 04:07:32;;;;;;;;;;;9.60;56.50;;;8.17;58.86;100059.75;12251745;19;19927;-85
2024/01/01 04:11:34;;;;;;;;;;;9.60;56.40;;;8.17;58.87;100062.38;12252581;19;20337;-85
2024/01/01 04:15:35;;;;;;;;;;;9.60;56.30;;;8.16;59.01;100058.94;12253338;19;20277;-85
2024/01/01 04:19:37;;;;;;;;;;;9.50;56.30;;;8.17;59.00;100072.75;12254780;19;19918;-85
2024/01/01 04:23:38;;;;;;;;;;;9.50;56.20;;;8.06;58.99;100062.13;12251925;19;19911;-85
2024/01/01 04:27:40;;;;;;;;;;;9.60;56.20;;;7.94;58.62;100048.88;12251681;19;19938;-85
2024/01/01 04:31:42;;;;;;;;;;;9.50;56.10;;;7.92;58.60;100075.88;12253040;19;20267;-85
2024/01/01 04:35:43;;;;;;;;;;;9.30;55.90;;;7.78;58.80;100058.44;12253469;19;19919;-85
2024/01/01 04:39:45;;;;;;;;;;;9.20;55.90;;;7.69;58.81;100064.97;12254871;19;19946;-85
2024/01/01 04:43:46;;;;;;;;;;;9.10;55.90;;;7.66;58.88;100059.94;12249690;19;20327;-85
2024/01/01 04:47:48;;;;;;;;;;;9.10;55.90;;;7.69;58.75;100072.75;12248289;19;19919;-85
2024/01/01 04:51:50;;;;;;;;;;;9.00;55.90;;;7.62;58.91;100057.59;12253621;19;20002;-85
2024/01/01 04:55:51;;;;;;;;;;;9.00;56.00;;;7.53;58.80;100057.19;12252227;19;20375;-85
2024/01/01 04:59:53;;;;;;;;;;;8.90;56.00;;;7.48;58.87;100048.78;12253618;19;19931;-85
2024/01/01 05:03:55;;;;;;;;;;;8.90;56.00;;;7.24;58.92;100014.56;12249076;19;19923;-85
2024/01/01 05:07:56;;;;;;;;;;;8.80;56.00;;;7.47;58.97;100056.66;12250098;19;19944;-85
2024/01/01 05:11:58;;;;;;;;;;;8.80;56.00;;;7.24;59.04;100022.34;12252708;19;19923;-85
2024/01/01 05:16:00;;;;;;;;;;;8.70;56.00;;;7.38;58.93;100036.38;12247984;19;19919;-85
2024/01/01 05:20:02;;;;;;;;;;;8.70;56.10;;;7.28;58.73;100030.81;12252827;19;20329;-85
2024/01/01 05:24:03;;;;;;;;;;;8.60;56.10;;;7.35;58.79;100044.31;12245912;19;19978;-85
2024/01/01 05:28:07;;;;;;;;;;;8.60;56.20;;;7.35;58.98;100050.34;12246104;19;20333;-85
2024/01/01 05:32:09;;;;;;;;;;;8.60;56.20;;;7.30;58.97;100040.19;12242091;19;19915;-85
2024/01/01 05:36:13;;;;;;;;;;;8.60;56.30;;;7.21;59.04;100026.84;12247796;19;19914;-85
2024/01/01 05:40:15;;;;;;;;;;;8.60;56.30;;;7.13;59.05;100005.63;12250492;19;19911;-85
2024/01/01 05:44:16;;;;;;;;;;;8.60;56.40;;;7.25;59.02;100025.78;12246088;19;19918;-85
2024/01/01 05:48:18;;;;;;;;;;;8.60;56.40;;;7.27;58.88;100031.75;12245295;19;19925;-85
2024/01/01 05:52:21;;;;;;;;;;;8.70;56.50;;;7.35;59.12;100036.53;12247558;19;19918;-85
2024/01/01 05:56:24;;;;;;;;;;;8.70;56.50;;;7.43;58.99;100057.75;12244321;19;19949;-85
2024/01/01 06:00:29;;;;;;;;;;;8.70;56.60;;;7.29;58.96;100027.28;12242892;19;20160;-85
2024/01/01 06:04:31;;;;;;;;;;;8.80;56.60;;;7.47;58.98;100054.03;12246790;19;20285;-85
2024/01/01 06:08:33;;;;;;;;;;;8.80;56.60;;;7.48;59.18;100064.38;12246387;19;19922;-85
2024/01/01 06:12:35;;;;;;;;;;;8.80;56.60;;;7.49;59.11;100055.66;12248830;19;19919;-85
2024/01/01 06:16:36;;;;;;;;;;;9.00;56.70;;;7.40;59.03;100045.75;12246119;19;19939;-85
2024/01/01 06:20:38;;;;;;;;;;;8.90;56.70;;;7.57;59.09;100067.41;12248085;19;20313;-85
2024/01/01 06:24:39;;;;;;;;;;;8.80;56.70;;;7.54;59.11;100058.00;12245039;19;19915;-85
2024/01/01 06:28:41;;;;;;;;;;;8.90;56.90;;;7.49;59.15;100042.66;12241481;19;19919;-85
2024/01/01 06:32:42;;;;;;;;;;;9.10;56.90;;;7.68;59.19;100059.88;12247316;19;19925;-85
2024/01/01 06:36:44;;;;;;;;;;;9.00;56.90;;;7.41;59.30;100018.84;12245368;19;19929;-85
2024/01/01 06:40:45;;;;;;;;;;;9.00;56.90;;;7.76;59.29;100062.88;12247379;19;20248;-86
2024/01/01 06:44:46;;;;;;;;;;;9.10;56.90;;;7.80;59.39;100073.94;12243583;19;19943;-86
2024/01/01 06:48:48;;;;;;;;;;;9.40;57.10;;;7.61;59.34;100029.91;12247337;19;20257;-86
2024/01/01 06:52:49;;;;;;;;;;;9.20;57.00;;;7.82;59.43;100066.91;12244361;19;19911;-85
2024/01/01 06:56:51;;;;;;;;;;;9.30;57.00;;;7.80;59.31;100061.78;12244144;19;19926;-85
2024/01/01 07:00:52;;;;;;;;;;;9.30;57.40;;;7.91;59.30;100080.25;12246342;19;19921;-85
2024/01/01 07:04:54;;;;;;;;;;;9.40;57.10;;;7.83;59.24;100068.56;12241259;19;20245;-86
2024/01/01 07:08:55;;;;;;;;;;;9.30;57.40;;;7.89;59.32;100074.28;12246400;19;19910;-85
2024/01/01 07:12:57;;;;;;;;;;;9.40;57.10;;;8.03;59.27;100096.09;12242393;19;19919;-85
2024/01/01 07:16:59;;;;;;;;;;;9.40;57.10;;;8.01;59.23;100067.56;12244047;19;20276;-86
2024/01/01 07:21:01;;;;;;;;;;;9.40;57.00;;;8.06;59.29;100085.53;12247298;19;19932;-85
2024/01/01 07:25:03;;;;;;;;;;;9.50;57.00;;;7.99;59.47;100077.22;12239906;19;20253;-86
2024/01/01 07:29:05;;;;;;;;;;;9.50;57.00;;;8.06;59.49;100080.31;12243623;19;19915;-88
2024/01/01 07:33:06;;;;;;;;;;;9.50;57.00;;;8.07;59.37;100090.63;12246900;19;19942;-85
2024/01/01 07:37:08;;;;;;;;;;;9.50;57.00;;;7.98;59.24;100076.38;12240719;19;19923;-86
2024/01/01 07:41:10;;;;;;;;;;;9.50;56.90;;;8.05;59.48;100084.69;12245526;19;19910;-85
2024/01/01 07:45:12;;;;;;;;;;;9.50;56.90;;;8.06;59.34;100081.16;12239967;19;19919;-85
2024/01/01 07:49:15;;;;;;;;;;;9.50;56.90;;;8.10;59.25;100102.63;12246577;19;19989;-85
2024/01/01 07:53:16;;;;;;;;;;;9.50;56.80;;;8.09;59.50;100093.16;12244329;19;19937;-85
2024/01/01 07:57:18;;;;;;;;;;;9.60;56.80;;;8.08;59.37;100097.53;12246292;19;19923;-84
2024/01/01 08:01:20;;;;;;;;;;;9.50;56.80;;;7.91;59.48;100063.78;12256291;19;19922;-84
2024/01/01 08:05:21;;;;;;;;;;;9.50;56.80;;;8.09;59.39;100098.34;12249058;19;20300;-84
2024/01/01 08:09:23;;;;;;;;;;;9.50;56.80;;;8.08;59.44;100094.09;12254431;19;19919;-84
2024/01/01 08:13:25;;;;;;;;;;;9.50;56.90;;;8.07;59.31;100087.19;12253197;19;19915;-85
2024/01/01 08:17:27;;;;;;;;;;;9.50;57.00;;;8.19;59.42;100100.38;12248113;19;19950;-85
2024/01/01 08:21:28;;;;;;;;;;;9.60;57.10;;;8.23;59.36;100108.81;12257202;19;19918;-84
2024/01/01 08:25:30;;;;;;;;;;;9.90;57.20;;;8.07;59.47;100082.00;12253398;19;19991;-85
2024/01/01 08:29:31;;;;;;;;;;;9.70;57.10;;;8.24;59.51;100115.72;12248268;19;20096;-85
2024/01/01 08:33:33;;;;;;;;;;;9.70;57.10;;;8.32;59.38;100118.75;12249349;19;19935;-84
2024/01/01 08:37:34;;;;;;;;;;;9.70;57.00;;;8.35;59.55;100118.56;12251439;19;19986;-84
2024/01/01 08:41:43;;;;;;;;;;;9.70;57.00;;;8.27;59.62;100097.34;12253472;19;20332;-84
2024/01/01 08:45:44;;;;;;;;;;;9.80;57.00;;;8.37;59.37;100111.53;12251570;19;19919;-84
2024/01/01 08:49:46;;;;;;;;;;;9.80;57.00;;;8.40;59.64;100115.75;12254391;19;19934;-85
2024/01/01 08:53:47;;;;;;;;;;;10.10;57.10;;;8.48;59.61;100120.50;12252005;19;19915;-85
2024/01/01 08:57:49;;;;;;;;;;;9.90;57.00;;;8.49;59.64;100119.59;12253191;19;20359;-85
2024/01/01 09:01:51;;;;;;;;;;;10.00;57.00;;;8.52;59.53;100132.41;12253509;19;19915;-85
2024/01/01 09:06:01;;;;;;;;;;;10.00;57.00;;;8.46;59.60;100112.78;12252446;19;20309;-86
2024/01/01 09:10:04;;;;;;;;;;;10.00;57.00;;;8.54;59.55;100121.00;12249799;19;19927;-85
2024/01/01 09:14:05;;;;;;;;;;;10.00;57.00;;;8.67;59.71;100136.78;12252516;19;20321;-84
2024/01/01 09:18:10;;;;;;;;;;;10.10;57.10;;;8.71;59.73;100135.66;12249374;19;20515;-85
2024/01/01 09:22:11;;;;;;;;;;;10.20;57.20;;;8.72;59.73;100124.34;12254093;19;19967;-84
2024/01/01 09:26:14;;;;;;;;;;;10.20;57.20;;;8.89;59.63;100138.16;12256181;19;19911;-84
2024/01/01 09:30:16;;;;;;;;;;;10.40;57.30;;;8.98;59.67;100142.81;12254345;19;20535;-84
2024/01/01 09:34:18;;;;;;;;;;;10.40;57.30;;;9.04;59.72;100143.28;12252994;19;20330;-85
2024/01/01 09:38:20;;;;;;;;;;;10.40;57.20;;;9.14;59.66;100141.00;12251235;19;19919;-84
2024/01/01 09:42:22;;;;;;;;;;;10.50;57.30;;;8.97;59.71;100097.72;12250104;19;19979;-84
2024/01/01 09:46:23;;;;;;;;;;;10.60;57.30;;;9.23;59.54;100127.41;12252310;19;20324;-85
2024/01/01 09:50:24;;;;;;;;;;;10.70;57.20;;;9.18;59.61;100124.25;12251337;19;20324;-86
2024/01/01 09:54:26;;;;;;;;;;;10.70;57.30;;;9.33;59.77;100121.66;12250683;19;19926;-87
2024/01/01 09:58:27;;;;;;;;;;;10.80;57.20;;;9.39;59.68;100123.91;12250281;19;20266;-88
2024/01/01 10:02:28;;;;;;;;;;;10.80;57.10;;;9.38;59.59;100111.81;12250796;19;20285;-86
2024/01/01 10:06:31;;;;;;;;;;;10.90;57.10;;;9.39;59.68;100122.13;12252823;19;20242;-87
2024/01/01 10:10:32;;;;;;;;;;;11.00;57.10;;;9.57;59.71;100138.44;12250990;19;20340;-87
2024/01/01 10:14:42;;;;;;;;;;;11.00;57.00;;;9.57;59.59;100128.00;12250293;19;19929;-87
2024/01/01 10:18:56;;;;;;;;;;;11.10;57.00;;;9.71;59.72;100148.84;12249316;19;19929;-87
2024/01/01 10:22:57;;;;;;;;;;;11.10;56.90;;;9.75;59.81;100144.31;12252866;19;20416;-86
2024/01/01 10:27:01;;;;;;;;;;;11.20;56.80;;;9.73;59.69;100141.78;12251717;19;20324;-86
2024/01/01 10:31:02;;;;;;;;;;;11.20;57.20;;;9.80;59.54;100144.00;12248367;19;20282;-87
2024/01/01 10:35:04;;;;;;;;;;;11.20;56.90;;;9.79;59.70;100142.34;12254691;19;20006;-87
2024/01/01 10:39:06;;;;;;;;;;;11.20;56.90;;;9.68;59.65;100127.34;12252331;19;19911;-87
2024/01/01 10:43:08;;;;;;;;;;;11.30;56.90;;;9.73;59.54;100128.75;12248516;19;19942;-86
2024/01/01 10:47:10;;;;;;;;;;;11.30;56.90;;;9.82;59.69;100147.38;12249301;19;19922;-86
2024/01/01 10:51:41;;;;;;;;;;;11.30;57.00;;;9.88;59.64;100150.44;12252398;19;19915;-88
2024/01/01 10:56:20;;;;;;;;;;;11.30;57.10;;;9.90;59.61;100155.56;12250469;19;19911;-88
2024/01/01 11:00:46;;;;;;;;;;;11.30;57.00;;;9.82;59.82;100140.38;12253633;19;20348;-88
2024/01/01 11:05:03;;;;;;;;;;;11.30;57.00;;;9.80;59.65;100131.81;12247431;19;20339;-87
2024/01/01 11:09:20;;;;;;;;;;;11.30;57.00;;;9.90;59.61;100150.34;12249513;19;20261;-86
2024/01/01 11:13:27;;;;;;;;;;;11.30;56.90;;;9.96;59.61;100152.56;12252803;19;19922;-87
2024/01/01 11:17:29;;;;;;;;;;;11.40;56.90;;;9.89;59.59;100144.28;12249443;19;20352;-87
2024/01/01 11:21:32;;;;;;;;;;;11.40;56.90;;;9.78;59.60;100125.88;12252128;19;19921;-88
2024/01/01 11:25:34;;;;;;;;;;;11.40;56.90;;;10.02;59.55;100148.72;12244260;19;20297;-86
2024/01/01 11:29:36;;;;;;;;;;;11.40;56.90;;;9.97;59.51;100130.78;12249975;19;19918;-86
2024/01/01 11:33:37;;;;;;;;;;;11.40;56.90;;;10.05;59.63;100138.97;12260121;19;20276;-87
2024/01/01 11:37:43;;;;;;;;;;;11.40;56.90;;;10.02;59.48;100123.50;12260321;19;19914;-85
2024/01/01 11:41:45;;;;;;;;;;;11.40;56.80;;;9.85;59.57;100093.25;12260100;19;19911;-86
2024/01/01 11:45:46;;;;;;;;;;;11.40;56.80;;;10.08;59.69;100133.56;12258749;19;20244;-86
2024/01/01 11:49:53;;;;;;;;;;;11.50;56.90;;;10.10;59.55;100138.66;12259554;19;19918;-85
2024/01/01 11:54:10;;;;;;;;;;;11.50;56.90;;;10.09;59.53;100130.00;12258713;19;19914;-86
2024/01/01 11:58:12;;;;;;;;;;;11.50;56.80;;;10.11;59.72;100120.31;12253848;19;19923;-86
2024/01/01 12:02:14;;;;;;;;;;;11.50;56.80;;;10.13;59.51;100115.84;12258091;19;19982;-86
2024/01/01 12:06:15;;;;;;;;;;;11.50;56.80;;;9.96;59.53;100080.41;12256115;19;19919;-86
2024/01/01 12:10:18;;;;;;;;;;;11.60;56.90;;;10.16;59.40;100112.19;12257817;19;20000;-86
2024/01/01 12:14:26;;;;;;;;;;;11.60;56.80;;;10.19;59.65;100118.06;12258334;19;19915;-86
2024/01/01 12:18:27;;;;;;;;;;;11.60;56.70;;;10.21;59.48;100110.13;12255726;19;19919;-85
2024/01/01 12:22:28;;;;;;;;;;;11.60;56.80;;;10.26;59.51;100122.88;12257380;19;19919;-86
2024/01/01 12:26:34;;;;;;;;;;;11.60;56.80;;;10.23;59.69;100112.63;12249249;19;20384;-87
2024/01/01 12:30:36;;;;;;;;;;;11.70;56.90;;;10.28;59.44;100108.00;12257587;19;19926;-87
2024/01/01 12:34:38;;;;;;;;;;;11.70;56.90;;;10.35;59.55;100119.72;12257074;19;20303;-85
2024/01/01 12:38:40;;;;;;;;;;;11.70;56.60;;;10.38;59.46;100119.53;12250621;19;19915;-84
2024/01/01 12:42:41;;;;;;;;;;;11.80;56.80;;;10.37;59.58;100110.03;12255955;19;20030;-84
2024/01/01 12:46:43;;;;;;;;;;;11.80;56.90;;;10.43;59.49;100114.03;12252362;19;19922;-85
2024/01/01 12:50:44;;;;;;;;;;;11.80;56.80;;;10.42;59.52;100100.09;12256423;19;19930;-86
2024/01/01 12:54:46;;;;;;;;;;;11.80;56.80;;;10.48;59.55;100097.13;12253156;19;19919;-89
2024/01/01 12:58:48;;;;;;;;;;;11.90;56.80;;;10.49;59.64;100105.78;12252555;19;19918;-86
2024/01/01 13:02:50;;;;;;;;;;;11.90;56.80;;;10.49;59.53;100104.00;12251492;19;19918;-86
2024/01/01 13:06:54;;;;;;;;;;;11.90;56.80;;;10.42;59.40;100100.09;12249481;19;19953;-86
2024/01/01 13:10:55;;;;;;;;;;;11.90;56.80;;;10.49;59.48;100098.78;12253238;19;19927;-86
2024/01/01 13:14:57;;;;;;;;;;;11.90;56.80;;;10.46;59.69;100091.16;12254172;19;20636;-86
2024/01/01 13:18:58;;;;;;;;;;;12.00;56.90;;;10.60;59.29;100119.81;12252594;19;19919;-87
2024/01/01 13:23:00;;;;;;;;;;;11.90;56.80;;;10.40;59.40;100062.84;12248365;19;20374;-85
2024/01/01 13:27:01;;;;;;;;;;;12.00;56.90;;;10.60;59.47;100101.53;12249480;19;20266;-86
2024/01/01 13:31:03;;;;;;;;;;;12.00;56.80;;;10.58;59.52;100094.72;12251815;19;19915;-86
2024/01/01 13:35:04;;;;;;;;;;;12.00;56.80;;;10.57;59.57;100096.50;12246940;19;19934;-86
2024/01/01 13:39:06;;;;;;;;;;;12.00;56.80;;;10.54;59.46;100091.50;12252775;19;19915;-86
2024/01/01 13:43:09;;;;;;;;;;;12.00;56.80;;;10.69;59.48;100110.53;12253315;19;19930;-86
2024/01/01 13:47:11;;;;;;;;;;;12.00;56.80;;;10.65;59.37;100103.03;12250195;19;19915;-87
2024/01/01 13:51:16;;;;;;;;;;;12.00;56.80;;;10.66;59.48;100105.50;12251072;19;19938;-86
2024/01/01 13:55:20;;;;;;;;;;;12.00;56.70;;;10.44;59.36;100074.75;12249940;19;20256;-86
2024/01/01 13:59:21;;;;;;;;;;;12.00;56.70;;;10.69;59.47;100115.75;12252088;19;19922;-86
2024/01/01 14:03:22;;;;;;;;;;;12.00;56.80;;;10.57;59.43;100099.13;12247807;19;20405;-86
2024/01/01 14:07:24;;;;;;;;;;;12.10;56.80;;;10.66;59.39;100115.94;12247339;19;19926;-86
2024/01/01 14:11:26;;;;;;;;;;;12.10;56.80;;;10.63;59.28;100101.31;12248479;19;19919;-86
2024/01/01 14:15:29;;;;;;;;;;;12.10;56.70;;;10.61;59.42;100104.97;12247632;19;19922;-86
2024/01/01 14:19:30;;;;;;;;;;;12.10;56.70;;;10.68;59.46;100113.25;12249913;19;19918;-86
2024/01/01 14:23:31;;;;;;;;;;;12.10;56.80;;;10.69;59.54;100112.31;12247969;19;19983;-86
2024/01/01 14:27:33;;;;;;;;;;;12.00;56.70;;;10.41;59.42;100064.50;12248107;19;19942;-86
2024/01/01 14:31:34;;;;;;;;;;;12.10;56.70;;;10.75;59.33;100117.16;12249052;19;19919;-86
2024/01/01 14:35:36;;;;;;;;;;;12.10;56.80;;;10.74;59.32;100118.06;12249085;19;19918;-87
2024/01/01 14:39:39;;;;;;;;;;;12.10;56.70;;;10.72;59.43;100114.72;12250876;19;20325;-86
2024/01/01 14:43:40;;;;;;;;;;;12.00;56.70;;;10.74;59.23;100124.13;12247672;19;19922;-86
2024/01/01 14:47:43;;;;;;;;;;;12.10;56.70;;;10.42;59.41;100076.63;12248953;19;19924;-86
2024/01/01 14:51:44;;;;;;;;;;;12.10;56.70;;;10.70;59.43;100121.84;12247134;19;19974;-86
2024/01/01 14:55:46;;;;;;;;;;;12.00;56.60;;;10.76;59.19;100131.88;12247734;19;19911;-87
2024/01/01 14:59:47;;;;;;;;;;;12.10;56.70;;;10.69;59.26;100120.97;12247711;19;20277;-86
2024/01/01 15:03:48;;;;;;;;;;;12.10;56.70;;;10.63;59.30;100108.31;12243614;19;19926;-86
2024/01/01 15:07:50;;;;;;;;;;;12.20;56.60;;;10.71;59.28;100133.94;12252912;19;20331;-86
2024/01/01 15:11:51;;;;;;;;;;;12.10;56.60;;;10.59;59.36;100114.69;12258214;19;19915;-86
2024/01/01 15:15:54;;;;;;;;;;;12.00;56.60;;;10.65;59.39;100129.13;12258367;19;20317;-86
2024/01/01 15:19:55;;;;;;;;;;;12.10;56.60;;;10.59;59.40;100127.75;12261700;19;19911;-86
2024/01/01 15:23:57;;;;;;;;;;;12.00;56.50;;;10.76;59.32;100152.75;12252705;19;20300;-87
2024/01/01 15:28:02;;;;;;;;;;;12.00;56.50;;;10.71;59.33;100153.06;12254587;19;19918;-87
2024/01/01 15:32:04;;;;;;;;;;;12.10;56.50;;;10.75;59.20;100157.16;12259722;19;19927;-86
2024/01/01 15:36:07;;;;;;;;;;;12.10;56.50;;;10.72;59.22;100156.50;12256368;19;19934;-86
2024/01/01 15:40:09;;;;;;;;;;;12.10;56.50;;;10.73;59.14;100163.41;12256761;19;19922;-86
2024/01/01 15:44:10;;;;;;;;;;;12.10;56.50;;;10.48;59.20;100127.63;12255773;19;19911;-87
2024/01/01 15:48:12;;;;;;;;;;;12.10;56.50;;;10.68;59.21;100165.47;12253762;19;19919;-86
2024/01/01 15:52:14;;;;;;;;;;;12.10;56.50;;;10.72;59.28;100180.00;12256519;19;19925;-86
2024/01/01 15:56:16;;;;;;;;;;;12.10;56.50;;;10.72;59.23;100182.59;12254926;19;19934;-86
2024/01/01 16:00:17;;;;;;;;;;;12.10;56.40;;;10.70;59.30;100184.50;12249747;19;19975;-86
2024/01/01 16:04:19;;;;;;;;;;;12.00;56.80;;;10.70;59.45;100189.72;12247070;19;20022;-86
2024/01/01 16:08:20;;;;;;;;;;;12.00;56.40;;;10.65;59.15;100184.78;12248181;19;20530;-86
2024/01/01 16:12:25;;;;;;;;;;;12.10;56.40;;;10.52;59.40;100169.06;12250164;19;19942;-86
2024/01/01 16:16:29;;;;;;;;;;;12.00;56.40;;;10.71;59.24;100201.84;12248979;19;19906;-86
2024/01/01 16:20:30;;;;;;;;;;;12.10;56.80;;;10.66;59.36;100193.47;12249082;19;20404;-86
2024/01/01 16:24:31;;;;;;;;;;;12.10;56.50;;;10.74;59.18;100212.91;12245760;19;19919;-86
2024/01/01 16:28:35;;;;;;;;;;;12.10;56.50;;;10.70;59.26;100208.00;12247700;19;19918;-87
2024/01/01 16:32:37;;;;;;;;;;;12.10;56.50;;;10.72;59.18;100216.56;12250507;19;19926;-86
2024/01/01 16:36:39;;;;;;;;;;;12.00;56.40;;;10.64;59.17;100201.41;12248265;19;20404;-86
2024/01/01 16:40:47;;;;;;;;;;;12.00;56.20;;;10.72;59.32;100229.63;12252104;19;19915;-86
2024/01/01 16:44:48;;;;;;;;;;;12.00;56.30;;;10.48;59.27;100188.50;12248059;19;19915;-86
2024/01/01 16:48:49;;;;;;;;;;;12.00;56.40;;;10.47;59.10;100184.19;12248420;19;19922;-86
2024/01/01 16:52:51;;;;;;;;;;;12.00;56.40;;;10.70;59.32;100229.72;12250183;19;20269;-86
2024/01/01 16:56:53;;;;;;;;;;;12.00;56.40;;;10.62;59.19;100219.78;12243865;19;19982;-86
2024/01/01 17:00:54;;;;;;;;;;;12.00;56.40;;;10.71;59.28;100249.69;12247766;19;19974;-86
2024/01/01 17:04:55;;;;;;;;;;;12.00;56.50;;;10.65;59.08;100234.41;12245685;19;19970;-86
2024/01/01 17:08:57;;;;;;;;;;;12.00;56.50;;;10.63;59.26;100234.50;12245075;19;19936;-85
2024/01/01 17:12:59;;;;;;;;;;;12.00;56.50;;;10.71;59.14;100259.28;12245342;19;19919;-86
2024/01/01 17:17:00;;;;;;;;;;;12.00;56.50;;;10.52;59.12;100231.72;12233994;19;19923;-86
2024/01/01 17:21:03;;;;;;;;;;;12.00;56.50;;;10.46;59.23;100215.63;12247269;19;20003;-86
2024/01/01 17:25:04;;;;;;;;;;;12.00;56.50;;;10.55;59.18;100239.34;12243457;19;19931;-86
2024/01/01 17:29:06;;;;;;;;;;;11.90;56.50;;;10.40;59.25;100230.72;12243174;19;20525;-86
2024/01/01 17:33:07;;;;;;;;;;;11.90;56.50;;;10.60;59.21;100258.19;12243605;19;20328;-86
2024/01/01 17:37:09;;;;;;;;;;;11.90;56.60;;;10.60;59.29;100259.97;12246947;19;19914;-86
2024/01/01 17:41:10;;;;;;;;;;;11.90;56.60;;;10.56;59.16;100255.88;12248132;19;20340;-86
2024/01/01 17:45:11;;;;;;;;;;;11.90;56.70;;;10.44;59.22;100241.81;12247174;19;19911;-86
2024/01/01 17:49:13;;;;;;;;;;;11.90;56.70;;;10.50;59.18;100257.06;12245913;19;19918;-86
2024/01/01 17:53:14;;;;;;;;;;;11.90;56.70;;;10.54;59.28;100261.19;12247120;19;19923;-86
2024/01/01 17:57:16;;;;;;;;;;;11.90;56.70;;;10.60;59.00;100276.47;12244042;19;19941;-86
2024/01/01 18:01:20;;;;;;;;;;;11.90;56.70;;;10.51;59.31;100271.00;12247712;19;19915;-86
2024/01/01 18:05:22;;;;;;;;;;;11.90;56.70;;;10.60;59.17;100294.75;12244985;19;19941;-86
2024/01/01 18:09:23;;;;;;;;;;;11.90;56.70;;;10.48;59.22;100274.63;12246267;19;20340;-86
2024/01/01 18:13:25;;;;;;;;;;;11.90;56.70;;;10.52;59.24;100296.16;12248790;19;19938;-86
2024/01/01 18:17:27;;;;;;;;;;;11.90;56.80;;;10.54;59.18;100302.97;12245869;19;19937;-86
2024/01/01 18:21:28;;;;;;;;;;;11.80;56.70;;;10.50;59.00;100298.84;12246382;19;20407;-87